Time;durP1;ratioP1;P1;durP2;ratioP2;P2;SDS_P1;SDS_P2;PMS_P1;PMS_P2;Temp;Humidity;BMP_temperature;BMP_pressure;BME280_temperature;BME280_humidity;BME280_pressure;Samples;Min_cycle;Max_cycle;Signal;HPM_P1;HPM_P2
2023/01/03 00:01:10;;;;;;;3.05;0.60;;;;;;;-0.92;75.51;99518.09;5074855;28;20056;-50
2023/01/03 00:04:32;;;;;;;5.43;1.15;;;;;;;-0.82;75.42;99513.91;5106572;27;20094;-45
2023/01/03 00:07:32;;;;;;;6.40;1.08;;;;;;;-0.70;75.46;99514.03;5086934;28;20507;-49
2023/01/03 00:10:24;;;;;;;3.42;1.10;;;;;;;-0.65;74.84;99517.47;5096317;27;20032;-48
2023/01/03 00:13:11;;;;;;;1.58;0.90;;;;;;;-0.70;74.65;99514.88;5087109;28;20221;-46
2023/01/03 00:15:59;;;;;;;3.33;0.77;;;;;;;-0.78;75.14;99505.44;5067356;28;20136;-48
2023/01/03 00:18:25;;;;;;;4.43;1.10;;;;;;;-0.95;75.33;99464.50;5099733;28;20419;-44
2023/01/03 00:21:10;;;;;;;1.42;0.80;;;;;;;-0.75;75.20;99495.28;5089284;28;20037;-46
2023/01/03 00:23:36;;;;;;;5.32;1.45;;;;;;;-0.74;75.20;99487.63;5105617;28;20074;-46
2023/01/03 00:26:20;;;;;;;2.58;1.00;;;;;;;-0.97;75.16;99455.97;5077477;28;20039;-45
2023/01/03 00:29:42;;;;;;;3.53;0.82;;;;;;;-0.70;75.05;99498.72;5088052;28;20072;-48
2023/01/03 00:32:49;;;;;;;1.85;1.10;;;;;;;-0.72;75.53;99495.28;5089938;28;20031;-48
2023/01/03 00:35:35;;;;;;;2.60;1.20;;;;;;;-0.71;75.36;99497.00;5107726;28;20063;-47
2023/01/03 00:38:19;;;;;;;3.45;1.10;;;;;;;-0.67;75.44;99494.47;5075958;28;20052;-45
2023/01/03 00:41:22;;;;;;;2.25;0.90;;;;;;;-0.59;75.51;99484.34;5098392;28;20542;-49
2023/01/03 00:44:07;;;;;;;2.40;1.00;;;;;;;-0.56;75.27;99474.13;5091215;28;20046;-45
2023/01/03 00:46:33;;;;;;;2.63;1.00;;;;;;;-0.44;75.07;99467.41;5088758;28;20123;-46
2023/01/03 00:49:18;;;;;;;2.55;1.17;;;;;;;-0.44;74.72;99454.66;5088079;28;20047;-46
2023/01/03 00:52:02;;;;;;;2.42;0.77;;;;;;;-0.44;74.97;99458.91;5098739;28;20065;-46
2023/01/03 00:54:47;;;;;;;2.53;1.05;;;;;;;-0.49;74.67;99453.75;5081764;28;20039;-46
2023/01/03 00:57:49;;;;;;;2.45;1.25;;;;;;;-0.44;74.78;99461.44;5105718;28;20085;-46
2023/01/03 01:00:15;;;;;;;3.45;1.15;;;;;;;-0.44;74.79;99458.91;5105777;28;20039;-46
2023/01/03 01:03:37;;;;;;;1.20;0.90;;;;;;;-0.49;74.48;99455.47;5105471;28;20108;-48
2023/01/03 01:06:42;;;;;;;2.83;0.88;;;;;;;-0.58;74.04;99456.28;5105165;28;20070;-47
2023/01/03 01:10:04;;;;;;;3.00;1.05;;;;;;;-0.58;74.17;99455.41;5105852;28;20039;-47
2023/01/03 01:12:48;;;;;;;5.82;1.27;;;;;;;-0.60;74.06;99439.22;5098189;28;20035;-48
2023/01/03 01:15:33;;;;;;;5.20;1.63;;;;;;;-0.51;74.03;99444.38;5104584;28;20062;-46
2023/01/03 01:18:37;;;;;;;2.20;1.27;;;;;;;-0.52;74.24;99435.84;5091217;28;20036;-47
2023/01/03 01:21:58;;;;;;;4.30;1.38;;;;;;;-0.49;74.35;99423.13;5089194;28;20529;-45
2023/01/03 01:24:43;;;;;;;3.20;1.42;;;;;;;-0.42;74.23;99414.63;5067356;28;20064;-45
2023/01/03 01:27:46;;;;;;;3.15;1.05;;;;;;;-0.37;74.03;99401.06;5078472;28;20572;-46
2023/01/03 01:30:49;;;;;;;2.55;0.90;;;;;;;-0.38;73.28;99397.66;5088871;28;20149;-46
2023/01/03 01:33:15;;;;;;;3.63;1.00;;;;;;;-0.35;73.27;99396.78;5087308;28;20519;-47
2023/01/03 01:36:18;;;;;;;3.70;1.00;;;;;;;-0.28;73.09;99393.44;5087358;28;20089;-46
2023/01/03 01:38:46;;;;;;;3.22;1.27;;;;;;;-0.16;72.91;99380.72;5083665;28;20036;-45
2023/01/03 01:44:54;;;;;;;2.45;1.00;;;;;;;-0.13;72.72;99373.06;5108929;28;20032;-47
2023/01/03 01:47:58;;;;;;;3.97;1.00;;;;;;;-0.21;72.15;99351.75;5091963;28;20419;-46
2023/01/03 01:50:36;;;;;;;3.55;1.45;;;;;;;0.04;72.44;99368.00;5070616;28;20031;-47
2023/01/03 01:53:47;;;;;;;3.72;1.23;;;;;;;-0.01;71.67;99358.63;5088738;28;20043;-48
2023/01/03 01:56:50;;;;;;;2.53;1.00;;;;;;;-0.02;71.70;99351.81;5087217;28;20042;-47
2023/01/03 02:00:12;;;;;;;2.33;0.95;;;;;;;0.05;70.96;99337.34;5111839;28;20511;-48
2023/01/03 02:03:15;;;;;;;3.80;1.70;;;;;;;0.01;71.25;99312.59;5109957;28;20039;-46
2023/01/03 02:05:59;;;;;;;3.30;1.30;;;;;;;0.21;71.02;99326.25;5102571;28;20041;-45
2023/01/03 02:08:44;;;;;;;3.95;1.02;;;;;;;0.37;71.16;99314.34;5094090;28;20035;-50
2023/01/03 02:15:30;;;;;;;3.33;1.55;;;;;;;0.53;70.51;99304.97;5078325;28;20609;-45
2023/01/03 02:18:16;;;;;;;6.20;1.45;;;;;;;0.63;70.54;99292.19;5103120;28;20039;-45
2023/01/03 02:21:10;;;;;;;3.13;1.38;;;;;;;0.72;70.76;99293.91;5109164;28;20053;-45
2023/01/03 02:23:48;;;;;;;4.53;1.52;;;;;;;0.77;70.14;99292.19;5071508;28;20044;-47
2023/01/03 02:26:46;;;;;;;6.15;1.80;;;;;;;0.73;70.03;99270.03;5093202;28;20483;-49
2023/01/03 02:29:35;;;;;;;7.05;2.00;;;;;;;0.77;69.90;99258.94;5092300;28;20092;-47
2023/01/03 02:32:47;;;;;;;3.90;1.55;;;;;;;0.71;70.12;99256.38;5105902;28;20032;-47
2023/01/03 02:35:35;;;;;;;5.38;2.00;;;;;;;0.70;70.08;99247.84;5080584;28;20048;-49
2023/01/03 02:38:48;;;;;;;5.32;1.90;;;;;;;0.75;70.32;99233.34;5073186;28;20041;-47
2023/01/03 02:41:37;;;;;;;5.95;1.90;;;;;;;0.91;69.65;99228.19;5097290;28;20043;-46
2023/01/03 02:44:20;;;;;;;7.03;2.13;;;;;;;0.82;69.75;99183.88;5099442;28;20419;-48
2023/01/03 02:47:42;;;;;;;4.88;2.17;;;;;;;1.03;69.07;99216.19;5079417;28;20048;-49
2023/01/03 02:50:10;;;;;;;7.53;1.83;;;;;;;0.62;69.08;99162.63;5106510;27;20090;-47
2023/01/03 02:52:37;;;;;;;7.05;2.60;;;;;;;0.91;69.43;99216.22;5069501;28;20044;-47
2023/01/03 02:55:58;;;;;;;5.70;2.00;;;;;;;0.90;69.40;99209.41;5099648;27;20040;-47
2023/01/03 02:59:01;;;;;;;5.97;2.45;;;;;;;0.93;68.93;99208.56;5089686;28;20035;-46
2023/01/03 03:01:49;;;;;;;7.25;2.17;;;;;;;0.74;68.41;99164.25;5078307;28;20142;-46
2023/01/03 03:04:54;;;;;;;7.20;2.80;;;;;;;0.78;67.82;99187.28;5094223;28;20097;-47
2023/01/03 03:07:44;;;;;;;2.97;1.00;;;;;;;0.78;67.48;99196.69;5094812;28;20133;-45
2023/01/03 03:13:12;;;;;;;6.65;1.80;;;;;;;0.55;68.14;99209.50;5111199;28;20095;-45
2023/01/03 03:16:15;;;;;;;2.13;0.82;;;;;;;0.32;69.63;99212.09;5072307;28;20580;-47
2023/01/03 03:24:48;;;;;;;2.80;0.80;;;;;;;-0.10;71.64;99163.56;5097939;28;20043;-49
2023/01/03 03:25:48;;;;;;;1.45;0.80;;;;;;;0.17;73.48;99191.66;5107824;28;20065;-47
2023/01/03 03:28:36;;;;;;;1.88;0.90;;;;;;;0.15;74.61;99182.31;5070016;28;20044;-46
2023/01/03 03:31:39;;;;;;;3.53;0.90;;;;;;;0.08;75.43;99180.59;5099946;28;20047;-43
2023/01/03 03:34:42;;;;;;;2.33;1.05;;;;;;;-0.17;76.81;99138.88;5090985;28;20096;-46
2023/01/03 03:37:26;;;;;;;4.57;0.95;;;;;;;-0.19;77.67;99143.13;5090020;28;20032;-50
2023/01/03 03:46:10;;;;;;;3.65;1.10;;;;;;;0.39;78.30;99149.88;5072660;28;20040;-46
2023/01/03 03:51:44;;;;;;;1.42;0.80;;;;;;;0.41;78.67;99139.66;5105171;28;20075;-47
2023/01/03 03:54:13;;;;;;;5.55;1.70;;;;;;;-0.06;79.26;99075.88;5105028;28;20031;-49
2023/01/03 03:57:16;;;;;;;3.35;1.20;;;;;;;0.33;79.66;99126.88;5098674;28;20040;-49
2023/01/03 03:59:45;;;;;;;4.28;1.40;;;;;;;0.48;79.74;99125.13;5073177;28;20043;-49
2023/01/03 04:02:49;;;;;;;1.70;1.10;;;;;;;0.42;80.25;99108.09;5110109;28;20082;-48
2023/01/03 04:05:35;;;;;;;2.95;1.13;;;;;;;0.47;80.67;99098.75;5110201;28;20135;-46
2023/01/03 04:08:38;;;;;;;4.05;1.05;;;;;;;0.46;80.38;99103.84;5087906;28;20035;-46
2023/01/03 04:11:04;;;;;;;3.20;1.20;;;;;;;0.23;80.83;99061.31;5102603;28;20035;-47
2023/01/03 04:13:35;;;;;;;1.73;1.10;;;;;;;0.41;81.44;99080.84;5106955;28;20039;-45
2023/01/03 04:16:19;;;;;;;2.63;1.17;;;;;;;0.54;81.00;99079.09;5101399;28;20072;-45
2023/01/03 04:19:04;;;;;;;3.03;1.35;;;;;;;0.64;81.36;99060.28;5089300;28;20075;-47
2023/01/03 04:21:48;;;;;;;3.28;1.30;;;;;;;0.69;81.71;99050.88;5107398;28;20192;-48
2023/01/03 04:24:14;;;;;;;2.67;1.20;;;;;;;0.73;81.60;99038.06;5108545;28;20043;-45
2023/01/03 04:27:17;;;;;;;2.28;1.20;;;;;;;0.72;81.56;99023.59;5094200;28;20035;-47
2023/01/03 04:30:02;;;;;;;2.88;1.15;;;;;;;0.64;81.93;99021.91;5094281;28;20049;-45
2023/01/03 04:32:30;;;;;;;3.42;1.15;;;;;;;0.74;82.18;99026.13;5109804;28;20050;-46
2023/01/03 04:35:14;;;;;;;1.90;1.10;;;;;;;0.82;82.03;99024.38;5109610;28;20423;-47
2023/01/03 04:38:36;;;;;;;2.63;1.08;;;;;;;0.93;82.31;99014.09;5090752;28;20415;-46
2023/01/03 04:41:39;;;;;;;3.85;1.52;;;;;;;0.87;82.03;99007.28;5105335;28;20057;-45
2023/01/03 04:44:04;;;;;;;4.13;1.42;;;;;;;0.94;82.13;98990.19;5107149;28;20040;-47
2023/01/03 04:47:08;;;;;;;3.40;1.65;;;;;;;0.93;82.30;98989.34;5105067;28;20151;-46
2023/01/03 04:49:52;;;;;;;3.00;1.48;;;;;;;0.93;82.57;98968.88;5089742;28;20059;-51
2023/01/03 04:52:55;;;;;;;2.33;1.20;;;;;;;1.04;82.71;98964.53;5109563;28;20126;-47
2023/01/03 04:55:46;;;;;;;3.92;1.70;;;;;;;1.06;82.50;98954.25;5089417;28;20039;-47
2023/01/03 04:58:31;;;;;;;2.35;1.30;;;;;;;1.04;82.81;98944.06;5098868;28;20035;-47
2023/01/03 05:01:02;;;;;;;2.88;1.80;;;;;;;1.08;82.75;98942.31;5107549;28;20100;-44
2023/01/03 05:04:05;;;;;;;;;;;;;;;1.09;82.77;98942.31;5088366;28;20469;-44
2023/01/03 05:06:30;;;;;;;3.67;1.77;;;;;;;1.09;83.14;98936.34;5109275;28;19955;-46
2023/01/03 05:09:15;;;;;;;3.70;1.83;;;;;;;1.15;83.13;98938.84;5103887;28;20083;-47
2023/01/03 05:11:41;;;;;;;4.22;1.98;;;;;;;0.99;83.07;98902.31;5087669;28;20062;-47
2023/01/03 05:14:44;;;;;;;3.45;1.95;;;;;;;1.17;83.52;98922.59;5105633;28;20491;-45
2023/01/03 05:17:28;;;;;;;4.15;1.70;;;;;;;1.07;83.32;98899.66;5101526;28;20066;-45
2023/01/03 05:27:18;;;;;;;4.05;2.03;;;;;;;1.11;84.36;98883.41;5106762;28;20039;-46
2023/01/03 05:29:48;;;;;;;3.85;1.73;;;;;;;1.15;84.33;98879.97;5070467;28;20040;-47
2023/01/03 05:32:17;;;;;;;3.92;1.95;;;;;;;1.21;84.27;98879.91;5109604;28;20530;-45
2023/01/03 05:35:01;;;;;;;3.90;2.22;;;;;;;1.24;84.41;98882.44;5111686;28;20100;-45
2023/01/03 05:37:46;;;;;;;3.50;1.95;;;;;;;1.04;84.23;98851.06;5101835;28;20040;-47
2023/01/03 05:40:30;;;;;;;5.40;2.40;;;;;;;1.28;84.85;98866.19;5093581;28;20200;-45
2023/01/03 05:43:15;;;;;;;4.47;2.20;;;;;;;1.26;84.87;98849.97;5110282;28;20047;-45
2023/01/03 05:45:59;;;;;;;2.95;2.20;;;;;;;1.16;84.85;98821.06;5088524;28;20042;-47
2023/01/03 05:49:02;;;;;;;5.00;2.33;;;;;;;1.38;84.74;98846.44;5093425;28;20537;-46
2023/01/03 05:51:28;;;;;;;5.20;2.75;;;;;;;1.40;84.53;98842.16;5104981;28;20060;-47
2023/01/03 05:53:54;;;;;;;5.55;2.55;;;;;;;1.33;84.46;98849.06;5106121;27;20047;-46
2023/01/03 05:56:39;;;;;;;5.47;2.70;;;;;;;1.13;84.86;98813.44;5104101;28;20351;-48
2023/01/03 05:59:23;;;;;;;4.55;2.60;;;;;;;1.17;85.07;98824.47;5112563;28;20039;-46
2023/01/03 06:02:10;;;;;;;4.90;3.08;;;;;;;1.15;84.70;98811.69;5101102;28;20068;-46
2023/01/03 06:05:13;;;;;;;6.47;3.38;;;;;;;1.16;85.06;98807.41;5091430;28;20032;-44
2023/01/03 06:07:59;;;;;;;5.95;3.40;;;;;;;1.18;85.06;98803.13;5081562;28;20590;-48
2023/01/03 06:10:25;;;;;;;7.82;3.38;;;;;;;1.14;85.07;98793.81;5110289;28;20515;-46
2023/01/03 06:13:09;;;;;;;6.22;3.53;;;;;;;1.18;85.17;98787.78;5101348;28;20047;-44
2023/01/03 06:18:56;;;;;;;6.03;3.92;;;;;;;1.24;85.46;98762.13;5108577;28;20134;-48
2023/01/03 06:21:40;;;;;;;7.65;3.47;;;;;;;1.24;85.82;98765.53;5105017;28;20043;-47
2023/01/03 06:24:25;;;;;;;9.00;4.13;;;;;;;1.31;85.99;98753.47;5102768;28;20122;-46
2023/01/03 06:27:09;;;;;;;8.02;4.10;;;;;;;1.35;85.75;98756.88;5099017;28;20070;-45
2023/01/03 06:29:54;;;;;;;7.80;3.60;;;;;;;1.40;85.68;98757.66;5090150;28;20075;-47
2023/01/03 06:32:38;;;;;;;8.02;3.78;;;;;;;1.48;85.90;98764.38;5085308;28;20147;-45
2023/01/03 06:35:04;;;;;;;8.60;3.95;;;;;;;1.53;85.62;98769.44;5100398;28;20130;-47
2023/01/03 06:37:49;;;;;;;7.43;3.70;;;;;;;1.40;85.74;98735.47;5086525;28;20037;-47
2023/01/03 06:40:33;;;;;;;5.97;4.00;;;;;;;1.41;85.82;98732.03;5093538;28;20042;-46
2023/01/03 06:43:17;;;;;;;6.50;3.63;;;;;;;1.57;85.85;98743.75;5097036;28;20418;-46
2023/01/03 06:55:14;;;;;;;7.97;3.63;;;;;;;1.61;85.86;98727.50;5104658;28;20102;-46
2023/01/03 06:57:58;;;;;;;5.70;2.78;;;;;;;1.47;85.45;98706.31;5090289;28;20085;-47
2023/01/03 07:00:43;;;;;;;8.98;3.70;;;;;;;1.61;86.22;98716.41;5101180;28;20040;-45
2023/01/03 07:03:46;;;;;;;6.55;3.42;;;;;;;1.27;85.67;98650.28;5089052;28;20044;-47
2023/01/03 07:06:31;;;;;;;7.80;3.28;;;;;;;1.49;85.43;98681.56;5094097;28;20527;-45
2023/01/03 07:09:15;;;;;;;7.95;3.53;;;;;;;1.64;85.52;98699.25;5102264;28;20074;-46
2023/01/03 07:13:57;;;;;;;5.68;3.55;;;;;;;1.63;85.82;98694.16;5091974;28;20082;-47
2023/01/03 07:15:22;;;;;;;8.55;4.00;;;;;;;1.63;86.33;98692.44;5110872;28;20131;-45
2023/01/03 07:18:26;;;;;;;8.00;3.95;;;;;;;1.69;86.08;98683.81;5107760;28;20027;-46
2023/01/03 07:21:29;;;;;;;6.95;3.65;;;;;;;1.81;85.97;98667.41;5095141;28;20046;-47
2023/01/03 07:24:17;;;;;;;9.50;4.20;;;;;;;1.77;85.85;98663.22;5107534;28;20043;-46
2023/01/03 07:27:20;;;;;;;11.82;4.57;;;;;;;1.70;86.12;98649.66;5073399;28;20396;-45
2023/01/03 07:29:46;;;;;;;15.13;6.38;;;;;;;1.79;86.28;98646.94;5072470;28;20181;-49
2023/01/03 07:32:12;;;;;;;13.65;6.57;;;;;;;1.72;85.89;98641.94;5102815;28;20705;-46
2023/01/03 07:35:15;;;;;;;13.27;6.50;;;;;;;1.81;86.51;98640.09;5109394;28;20516;-49
2023/01/03 07:38:18;;;;;;;12.13;6.68;;;;;;;1.84;85.92;98634.91;5093268;28;20527;-46
2023/01/03 07:41:02;;;;;;;12.15;6.05;;;;;;;1.83;85.63;98628.09;5094606;28;20129;-47
2023/01/03 07:43:48;;;;;;;13.32;5.38;;;;;;;1.86;85.80;98619.50;5085276;28;20139;-51
2023/01/03 07:46:23;;;;;;;13.23;5.85;;;;;;;1.93;86.05;98618.53;5072254;28;20037;-50
2023/01/03 07:49:07;;;;;;;11.18;6.05;;;;;;;1.98;85.93;98612.47;5109176;28;20138;-45
2023/01/03 07:51:52;;;;;;;11.85;5.57;;;;;;;1.94;85.68;98609.97;5090597;28;20044;-48
2023/01/03 07:54:18;;;;;;;12.05;5.78;;;;;;;1.88;85.63;98610.09;5091855;28;20036;-45
2023/01/03 07:57:21;;;;;;;14.43;6.15;;;;;;;1.89;85.59;98602.34;5087893;28;20582;-46
2023/01/03 07:59:47;;;;;;;14.80;6.15;;;;;;;1.84;85.32;98586.22;5088846;28;20043;-45
2023/01/03 08:02:49;;;;;;;12.00;6.43;;;;;;;1.88;85.74;98574.22;5098405;28;20150;-46
2023/01/03 08:05:37;;;;;;;10.48;5.93;;;;;;;1.95;85.70;98579.19;5105880;28;20039;-46
2023/01/03 08:08:21;;;;;;;12.15;6.47;;;;;;;1.95;85.24;98578.34;5114621;27;20043;-47
2023/01/03 08:14:09;;;;;;;12.38;6.28;;;;;;;1.75;85.07;98559.91;5091631;28;20044;-48
2023/01/03 08:16:56;;;;;;;10.27;6.05;;;;;;;1.72;85.67;98559.97;5070818;28;20040;-49
2023/01/03 08:19:23;;;;;;;11.10;6.47;;;;;;;1.67;85.54;98545.50;5084288;28;20131;-47
2023/01/03 08:22:27;;;;;;;13.65;7.32;;;;;;;1.79;85.57;98543.59;5109321;27;20067;-50
2023/01/03 08:24:52;;;;;;;9.27;6.00;;;;;;;1.68;85.11;98502.81;5074250;28;20125;-49
2023/01/03 08:27:56;;;;;;;11.23;6.32;;;;;;;1.86;85.14;98530.66;5094267;28;20100;-46
2023/01/03 08:31:03;;;;;;;9.07;5.68;;;;;;;1.87;85.05;98514.44;5101264;28;20035;-46
2023/01/03 08:33:35;;;;;;;10.73;4.67;;;;;;;1.84;85.01;98522.16;5108004;28;20102;-46
2023/01/03 08:36:21;;;;;;;8.75;6.30;;;;;;;1.82;84.71;98520.50;5105971;28;20430;-45
2023/01/03 08:39:24;;;;;;;6.72;4.65;;;;;;;1.81;84.63;98511.97;5080388;28;20040;-49
2023/01/03 08:41:54;;;;;;;9.43;5.78;;;;;;;1.84;84.90;98490.56;5103712;28;20442;-43
2023/01/03 08:44:38;;;;;;;6.13;4.43;;;;;;;1.73;84.61;98461.75;5104838;28;20047;-44
2023/01/03 08:48:00;;;;;;;8.70;5.15;;;;;;;1.90;84.71;98490.44;5097563;28;20123;-46
2023/01/03 08:50:29;;;;;;;6.20;4.53;;;;;;;1.94;84.39;98480.09;5083992;28;20441;-47
2023/01/03 08:52:55;;;;;;;7.78;4.95;;;;;;;1.72;84.28;98476.28;5073789;28;20054;-48
2023/01/03 08:55:40;;;;;;;8.77;4.88;;;;;;;1.64;84.87;98461.03;5086604;28;20156;-46
2023/01/03 08:58:43;;;;;;;9.95;5.85;;;;;;;1.66;85.17;98449.06;5106905;28;20127;-44
2023/01/03 09:01:46;;;;;;;11.82;5.60;;;;;;;1.74;85.57;98448.06;5076252;28;20044;-48
2023/01/03 09:04:30;;;;;;;8.60;5.45;;;;;;;1.68;85.46;98419.13;5091868;28;20054;-47
2023/01/03 09:06:56;;;;;;;8.52;4.93;;;;;;;1.85;85.29;98418.78;5094449;28;20047;-44
2023/01/03 09:09:59;;;;;;;13.10;5.00;;;;;;;1.67;85.31;98386.69;5081672;28;20029;-45
2023/01/03 09:12:43;;;;;;;6.90;4.53;;;;;;;1.89;85.25;98420.41;5090533;28;20047;-42
2023/01/03 09:15:28;;;;;;;9.50;4.93;;;;;;;1.83;85.35;98424.84;5092176;28;20084;-42
2023/01/03 09:17:53;;;;;;;7.18;4.78;;;;;;;1.62;85.06;98414.09;5090541;28;20035;-44
2023/01/03 09:20:19;;;;;;;7.45;4.80;;;;;;;1.35;85.59;98375.41;5105707;28;20035;-44
2023/01/03 09:23:22;;;;;;;8.52;4.95;;;;;;;1.59;85.74;98396.25;5107789;28;20557;-44
2023/01/03 09:25:48;;;;;;;9.35;4.47;;;;;;;1.28;85.71;98355.03;5098715;28;20036;-43
2023/01/03 09:28:14;;;;;;;11.73;4.90;;;;;;;1.36;85.99;98383.03;5092483;28;20074;-43
2023/01/03 09:30:42;;;;;;;6.97;4.75;;;;;;;1.44;86.11;98380.34;5087529;28;20119;-43
2023/01/03 09:33:09;;;;;;;6.97;4.70;;;;;;;1.45;86.32;98380.31;5091497;28;20588;-44
2023/01/03 09:35:36;;;;;;;7.20;4.80;;;;;;;1.46;86.40;98376.88;5090732;28;20036;-45
2023/01/03 09:38:21;;;;;;;9.43;4.57;;;;;;;1.41;86.86;98370.16;5095697;28;20031;-43
2023/01/03 09:40:47;;;;;;;8.38;4.85;;;;;;;1.35;86.73;98352.34;5096740;28;20516;-45
2023/01/03 09:43:33;;;;;;;10.65;4.78;;;;;;;1.40;87.16;98345.44;5082590;28;20101;-44
2023/01/03 09:46:00;;;;;;;9.57;5.07;;;;;;;1.28;87.06;98303.81;5098422;28;20035;-43
2023/01/03 09:48:45;;;;;;;7.30;4.82;;;;;;;1.59;86.71;98329.66;5112430;27;20850;-44
2023/01/03 10:04:50;;;;;;;7.65;4.65;;;;;;;1.35;87.65;98296.88;5072356;28;20138;-42
2023/01/03 10:07:54;;;;;;;9.20;4.93;;;;;;;1.35;88.28;98302.00;5071614;28;20536;-44
2023/01/03 10:11:01;;;;;;;9.27;5.40;;;;;;;1.29;88.88;98312.34;5072172;28;20075;-44
2023/01/03 10:14:08;;;;;;;8.27;4.63;;;;;;;1.32;88.40;98302.03;5030671;28;20053;-43
2023/01/03 10:17:11;;;;;;;6.60;4.05;;;;;;;1.18;89.41;98298.91;5025542;28;20064;-42
2023/01/03 10:19:49;;;;;;;9.93;5.88;;;;;;;1.27;89.74;98297.00;5004355;28;20029;-44
2023/01/03 10:22:33;;;;;;;10.98;5.20;;;;;;;1.33;89.78;98279.84;5033879;28;20073;-43
2023/01/03 10:25:19;;;;;;;6.68;4.32;;;;;;;1.32;90.49;98253.41;5030631;28;20068;-42
2023/01/03 10:27:47;;;;;;;8.98;4.53;;;;;;;1.36;90.68;98254.19;5038636;28;20617;-43
2023/01/03 10:30:51;;;;;;;9.02;4.88;;;;;;;1.33;90.79;98254.25;5035710;28;20057;-42
2023/01/03 10:33:47;;;;;;;8.43;4.70;;;;;;;1.32;91.26;98253.41;5035693;28;20053;-45
2023/01/03 10:36:50;;;;;;;10.00;5.10;;;;;;;1.49;91.71;98258.19;5044129;28;20115;-42
2023/01/03 10:39:28;;;;;;;8.05;4.65;;;;;;;1.32;91.00;98215.00;5025851;28;20406;-42
2023/01/03 10:42:54;;;;;;;7.63;4.82;;;;;;;1.58;91.46;98253.69;5058386;28;20584;-43
2023/01/03 10:45:22;;;;;;;11.27;4.97;;;;;;;1.56;91.86;98245.22;5052877;28;20045;-43
2023/01/03 10:48:33;;;;;;;9.10;4.68;;;;;;;1.69;91.89;98231.25;5037263;28;20052;-42
2023/01/03 10:51:18;;;;;;;9.68;4.78;;;;;;;1.71;92.14;98238.91;5076121;28;20602;-44
2023/01/03 10:54:28;;;;;;;11.52;5.38;;;;;;;1.73;92.48;98238.91;5077819;28;20570;-43
2023/01/03 10:57:32;;;;;;;10.40;4.95;;;;;;;1.72;92.80;98224.41;5090810;28;20040;-43
2023/01/03 11:00:20;;;;;;;9.18;5.30;;;;;;;1.85;92.80;98225.78;5085780;28;20539;-42
2023/01/03 11:02:46;;;;;;;11.00;5.80;;;;;;;1.85;93.00;98236.03;5083206;28;20044;-41
2023/01/03 11:05:18;;;;;;;9.80;5.53;;;;;;;2.00;93.14;98218.59;5075411;28;20044;-43
2023/01/03 11:08:03;;;;;;;13.52;5.60;;;;;;;2.15;93.07;98211.44;5081220;28;20062;-43
2023/01/03 11:10:58;;;;;;;10.48;5.53;;;;;;;2.15;92.63;98198.63;5085780;28;20039;-42
2023/01/03 11:13:43;;;;;;;13.95;6.25;;;;;;;2.14;92.37;98202.91;5068531;28;20036;-45
2023/01/03 11:16:27;;;;;;;12.00;5.80;;;;;;;2.20;92.93;98189.09;5085213;28;20526;-43
2023/01/03 11:19:17;;;;;;;15.07;5.90;;;;;;;2.04;92.78;98153.56;5097905;28;20075;-43
2023/01/03 11:22:26;;;;;;;7.82;5.40;;;;;;;2.24;92.59;98181.28;5088835;28;20043;-43
2023/01/03 11:25:24;;;;;;;11.43;5.57;;;;;;;1.97;92.56;98144.34;5088303;28;20114;-42
2023/01/03 11:28:24;;;;;;;11.45;5.93;;;;;;;2.24;92.86;98170.19;5086263;28;20508;-42
2023/01/03 11:31:19;;;;;;;;;;;;;;;2.27;92.78;98158.13;5087370;28;20040;-42
2023/01/03 11:34:26;;;;;;;11.57;5.28;;;;;;;2.33;93.07;98165.66;5096131;28;19938;-42
2023/01/03 11:37:29;;;;;;;12.82;6.38;;;;;;;2.42;92.99;98165.41;5087133;28;20502;-42
2023/01/03 11:40:42;;;;;;;12.95;6.05;;;;;;;2.25;93.60;98128.28;5088529;28;20044;-42
2023/01/03 11:43:45;;;;;;;10.45;6.15;;;;;;;2.39;93.61;98168.06;5087677;28;20048;-47
2023/01/03 11:46:36;;;;;;;13.50;6.95;;;;;;;2.36;94.28;98164.72;5086555;28;20039;-42
2023/01/03 11:50:00;;;;;;;14.68;6.28;;;;;;;2.23;94.99;98135.16;5086224;28;20554;-42
2023/01/03 11:53:04;;;;;;;18.02;6.35;;;;;;;2.29;95.48;98135.84;5103361;28;20148;-43
2023/01/03 11:56:00;;;;;;;13.25;6.55;;;;;;;2.23;96.05;98145.41;5088645;28;20632;-50
2023/01/03 11:59:08;;;;;;;10.23;5.55;;;;;;;2.22;96.90;98161.69;5072329;28;20126;-43
2023/01/03 12:02:01;;;;;;;28.88;7.90;;;;;;;2.18;97.76;98137.00;5065240;28;20135;-42
2023/01/03 12:05:05;;;;;;;15.90;6.93;;;;;;;2.22;98.97;98149.69;5087342;28;20047;-43
2023/01/03 12:07:58;;;;;;;15.73;6.82;;;;;;;2.00;100.00;98105.81;5084907;28;20035;-44
2023/01/03 12:10:52;;;;;;;16.52;7.40;;;;;;;2.20;100.00;98122.44;5084348;28;20024;-44
2023/01/03 12:13:27;;;;;;;13.32;4.88;;;;;;;2.17;100.00;98133.59;5088830;28;20036;-44
2023/01/03 12:16:07;;;;;;;17.63;7.40;;;;;;;2.20;100.00;98133.50;5087860;28;20040;-43
2023/01/03 12:19:11;;;;;;;16.73;7.10;;;;;;;2.24;100.00;98135.13;5086221;28;20426;-43
2023/01/03 12:21:43;;;;;;;18.70;7.57;;;;;;;2.25;100.00;98135.97;5086699;28;20032;-42
2023/01/03 12:24:46;;;;;;;19.48;7.82;;;;;;;2.26;100.00;98112.84;5082324;28;20089;-42
2023/01/03 12:27:36;;;;;;;21.15;8.25;;;;;;;2.24;100.00;98101.81;5087814;28;20404;-42
2023/01/03 12:30:05;;;;;;;24.13;7.32;;;;;;;1.98;100.00;98079.41;5087435;28;20085;-42
2023/01/03 12:32:42;;;;;;;13.57;5.75;;;;;;;2.21;100.00;98116.41;5092252;28;20507;-44
2023/01/03 12:35:41;;;;;;;21.90;6.95;;;;;;;2.22;100.00;98089.91;5099971;28;20044;-43
2023/01/03 12:38:37;;;;;;;17.50;6.78;;;;;;;2.29;100.00;98086.28;5075490;28;20047;-44
2023/01/03 12:41:23;;;;;;;18.48;6.65;;;;;;;2.33;100.00;98105.84;5085921;28;20067;-42
2023/01/03 12:44:29;;;;;;;12.10;3.80;;;;;;;2.26;100.00;98104.31;5087390;28;20043;-42
2023/01/03 12:47:14;;;;;;;19.90;7.05;;;;;;;2.24;100.00;98109.50;5083514;28;20056;-41
2023/01/03 12:50:21;;;;;;;9.63;4.57;;;;;;;2.22;100.00;98112.97;5086590;28;20586;-43
2023/01/03 12:52:57;;;;;;;20.40;6.83;;;;;;;2.22;100.00;98103.56;5087404;28;20040;-41
2023/01/03 12:55:46;;;;;;;7.45;3.58;;;;;;;2.24;100.00;98104.38;5091495;28;20047;-42
2023/01/03 12:58:43;;;;;;;15.95;4.43;;;;;;;2.23;100.00;98106.97;5081412;28;20495;-41
2023/01/03 13:01:14;;;;;;;14.55;5.85;;;;;;;2.29;100.00;98107.66;5082110;28;20059;-42
2023/01/03 13:04:20;;;;;;;17.05;6.82;;;;;;;2.20;100.00;98086.56;5085018;28;20056;-41
2023/01/03 13:07:10;;;;;;;7.13;3.75;;;;;;;2.41;100.00;98119.28;5082856;28;20032;-42
2023/01/03 13:10:16;;;;;;;12.05;5.10;;;;;;;2.33;100.00;98111.81;5088143;28;20129;-42
2023/01/03 13:13:01;;;;;;;11.73;5.07;;;;;;;2.37;100.00;98115.97;5081156;28;20044;-42
2023/01/03 13:15:46;;;;;;;11.48;5.35;;;;;;;2.43;100.00;98109.84;5086277;28;20043;-42
2023/01/03 13:18:21;;;;;;;13.32;5.57;;;;;;;2.45;100.00;98108.94;5067762;28;20890;-42
2023/01/03 13:21:06;;;;;;;11.32;4.90;;;;;;;2.48;100.00;98110.53;5084077;28;20100;-42
2023/01/03 13:23:58;;;;;;;15.60;7.53;;;;;;;2.51;100.00;98113.88;5085594;28;20039;-41
2023/01/03 13:27:02;;;;;;;21.45;7.72;;;;;;;2.60;100.00;98111.94;5086339;28;20062;-42
2023/01/03 13:30:38;;;;;;;18.30;7.97;;;;;;;2.66;100.00;98111.78;5080976;28;20075;-43
2023/01/03 13:33:45;;;;;;;17.67;6.97;;;;;;;2.76;100.00;98116.63;5062177;28;20123;-44
2023/01/03 13:36:11;;;;;;;12.93;4.53;;;;;;;2.77;100.00;98125.16;5082563;28;20055;-42
2023/01/03 13:39:33;;;;;;;18.30;7.13;;;;;;;2.76;100.00;98114.03;5098543;28;20036;-43
2023/01/03 13:42:34;;;;;;;25.85;8.30;;;;;;;2.79;100.00;98129.34;5085202;28;20052;-42
2023/01/03 13:45:56;;;;;;;22.70;7.15;;;;;;;2.78;100.00;98122.53;5079739;28;20190;-42
2023/01/03 13:48:28;;;;;;;16.13;6.40;;;;;;;2.83;100.00;98124.94;5088189;28;20080;-41
2023/01/03 13:51:32;;;;;;;10.25;4.88;;;;;;;2.81;100.00;98112.19;5095510;28;20039;-43
2023/01/03 13:54:29;;;;;;;15.88;6.82;;;;;;;2.84;100.00;98117.22;5092878;28;20032;-42
2023/01/03 13:57:02;;;;;;;10.93;4.13;;;;;;;2.89;100.00;98106.81;5091674;28;20040;-42
2023/01/03 13:59:49;;;;;;;14.77;6.85;;;;;;;2.93;100.00;98108.44;5090572;28;20058;-43
2023/01/03 14:03:01;;;;;;;15.57;5.97;;;;;;;2.98;100.00;98117.66;5091200;28;20469;-44
2023/01/03 14:05:49;;;;;;;14.07;6.38;;;;;;;2.98;100.00;98117.66;5087864;28;20036;-42
2023/01/03 14:08:43;;;;;;;13.55;5.25;;;;;;;3.03;100.00;98114.97;5091922;28;20028;-42
2023/01/03 14:12:05;;;;;;;13.63;5.78;;;;;;;3.04;100.00;98113.22;5085807;28;20040;-44
2023/01/03 14:14:54;;;;;;;18.17;6.05;;;;;;;3.05;100.00;98105.50;5091352;28;20051;-43
2023/01/03 14:17:41;;;;;;;10.97;5.80;;;;;;;3.05;100.00;98115.75;5089156;28;20507;-43
2023/01/03 14:20:30;;;;;;;16.65;6.72;;;;;;;3.06;100.00;98121.72;5087184;28;20036;-42